Time;durP1;ratioP1;P1;durP2;ratioP2;P2;SDS_P1;SDS_P2;PMS_P1;PMS_P2;Temp;Humidity;BMP_temperature;BMP_pressure;BME280_temperature;BME280_humidity;BME280_pressure;Samples;Min_cycle;Max_cycle;Signal;HPM_P1;HPM_P2
2022/03/06 00:02:14;;;;;;;51.90;26.58;;;;;;;-0.37;76.68;102350.94;4992769;28;20413;-77
2022/03/06 00:04:39;;;;;;;50.10;25.77;;;;;;;-0.37;76.49;102348.41;4993177;28;20046;-75
2022/03/06 00:07:04;;;;;;;52.55;26.83;;;;;;;-0.39;76.56;102348.41;4993155;28;20577;-75
2022/03/06 00:09:30;;;;;;;48.90;25.92;;;;;;;-0.41;76.67;102352.59;4993066;28;20117;-76
2022/03/06 00:11:56;;;;;;;52.22;26.30;;;;;;;-0.70;76.55;102308.41;4992890;28;20388;-76
2022/03/06 00:14:21;;;;;;;49.65;26.42;;;;;;;-0.48;76.77;102355.94;4991088;28;20125;-79
2022/03/06 00:16:47;;;;;;;51.95;26.70;;;;;;;-0.64;76.86;102328.75;4992708;28;20015;-78
2022/03/06 00:19:12;;;;;;;53.28;27.85;;;;;;;-0.53;76.66;102360.13;4991591;28;20045;-80
2022/03/06 00:21:39;;;;;;;52.85;27.05;;;;;;;-0.65;76.73;102344.81;4993117;28;20042;-76
2022/03/06 00:24:05;;;;;;;48.40;26.38;;;;;;;-0.60;76.66;102363.44;4992875;28;20424;-76
2022/03/06 00:26:30;;;;;;;51.63;26.75;;;;;;;-0.66;77.10;102369.31;4992819;28;20026;-76
2022/03/06 00:28:56;;;;;;;52.38;27.17;;;;;;;-0.65;77.14;102371.03;4992748;28;20526;-77
2022/03/06 00:31:24;;;;;;;50.08;24.88;;;;;;;-0.75;76.98;102355.72;4992684;28;20022;-78
2022/03/06 00:33:51;;;;;;;50.05;26.35;;;;;;;-0.81;76.93;102353.13;4992670;28;20495;-76
2022/03/06 00:36:17;;;;;;;52.70;26.67;;;;;;;-0.85;76.96;102352.25;4992813;28;20032;-77
2022/03/06 00:38:42;;;;;;;52.38;26.35;;;;;;;-0.89;77.03;102341.22;4992658;28;20384;-76
2022/03/06 00:41:08;;;;;;;48.42;24.83;;;;;;;-0.74;77.06;102380.25;4991358;28;20038;-76
2022/03/06 00:43:33;;;;;;;47.63;24.52;;;;;;;-1.07;76.99;102330.09;4992381;28;20022;-75
2022/03/06 00:45:58;;;;;;;48.63;25.27;;;;;;;-1.01;77.47;102352.94;4992804;28;20022;-75
2022/03/06 00:48:24;;;;;;;50.85;25.33;;;;;;;-0.87;77.73;102384.38;4992615;28;20065;-77
2022/03/06 00:50:49;;;;;;;51.03;26.35;;;;;;;-0.91;77.80;102391.06;4992510;28;20058;-75
2022/03/06 00:53:15;;;;;;;51.25;25.85;;;;;;;-0.95;77.89;102391.06;4992749;28;20037;-78
2022/03/06 00:55:40;;;;;;;46.40;25.15;;;;;;;-1.03;78.19;102388.44;4992878;28;20022;-76
2022/03/06 00:58:06;;;;;;;49.67;25.88;;;;;;;-1.01;78.07;102389.28;4994781;28;20589;-75
2022/03/06 01:00:36;;;;;;;49.90;25.55;;;;;;;-1.03;78.50;102396.03;4996239;28;20487;-77
2022/03/06 01:03:04;;;;;;;50.95;26.95;;;;;;;-1.20;78.78;102362.06;4996050;28;20022;-74
2022/03/06 01:05:30;;;;;;;50.67;25.48;;;;;;;-1.04;78.95;102389.28;4996206;28;20057;-75
2022/03/06 01:07:55;;;;;;;50.25;25.15;;;;;;;-1.08;79.03;102387.56;4996312;28;20476;-78
2022/03/06 01:10:20;;;;;;;57.22;26.23;;;;;;;-1.10;79.51;102394.28;4996005;28;20046;-75
2022/03/06 01:12:46;;;;;;;51.08;26.52;;;;;;;-1.16;79.58;102387.47;4995730;28;20082;-76
2022/03/06 01:15:11;;;;;;;49.33;24.63;;;;;;;-1.22;79.61;102374.72;4995752;28;20495;-75
2022/03/06 01:17:37;;;;;;;48.30;25.67;;;;;;;-1.21;79.63;102378.94;4995955;28;20027;-77
2022/03/06 01:20:03;;;;;;;49.45;25.90;;;;;;;-1.35;79.78;102356.84;4995702;28;20061;-78
2022/03/06 01:22:28;;;;;;;50.45;24.90;;;;;;;-1.18;79.63;102371.41;4995928;28;20022;-76
2022/03/06 01:24:54;;;;;;;47.80;25.13;;;;;;;-1.35;79.43;102344.19;4995930;28;20037;-78
2022/03/06 01:27:19;;;;;;;51.97;25.27;;;;;;;-1.00;79.84;102393.53;4995455;28;20031;-76
2022/03/06 01:29:44;;;;;;;46.28;25.00;;;;;;;-1.36;80.06;102338.25;4994269;28;20052;-75
2022/03/06 01:32:10;;;;;;;49.63;24.13;;;;;;;-0.98;80.01;102403.72;4995637;28;20476;-77
2022/03/06 01:34:35;;;;;;;48.90;25.25;;;;;;;-1.08;79.85;102391.75;4995361;28;20041;-75
2022/03/06 01:37:00;;;;;;;51.65;26.10;;;;;;;-0.99;79.96;102412.97;4995423;28;20484;-78
2022/03/06 01:39:26;;;;;;;50.40;24.85;;;;;;;-1.22;80.04;102379.78;4994197;28;20045;-76
2022/03/06 01:41:51;;;;;;;50.53;24.70;;;;;;;-1.06;80.33;102403.63;4995457;28;20054;-78
2022/03/06 01:44:16;;;;;;;45.25;24.67;;;;;;;-1.01;80.09;102408.72;4995405;28;20049;-76
2022/03/06 01:46:45;;;;;;;46.13;25.08;;;;;;;-1.07;80.32;102404.47;4995540;28;20500;-76
2022/03/06 01:49:11;;;;;;;47.30;24.52;;;;;;;-1.23;79.92;102377.25;4995295;28;20488;-76
2022/03/06 01:51:36;;;;;;;48.72;24.98;;;;;;;-1.09;80.08;102395.97;4995217;28;20026;-75
2022/03/06 01:54:02;;;;;;;48.25;24.70;;;;;;;-1.01;79.95;102413.78;4994115;28;20169;-75
2022/03/06 01:56:28;;;;;;;47.13;24.40;;;;;;;-1.02;80.02;102410.41;4995413;28;20145;-75
2022/03/06 01:58:54;;;;;;;46.20;23.95;;;;;;;-1.20;79.92;102380.66;4994984;28;20113;-75
2022/03/06 02:01:20;;;;;;;44.47;24.60;;;;;;;-1.25;80.18;102378.91;4995493;28;20837;-77
2022/03/06 02:03:45;;;;;;;46.47;24.92;;;;;;;-1.10;80.31;102412.00;4995097;28;20029;-76
2022/03/06 02:06:11;;;;;;;45.97;25.20;;;;;;;-1.14;80.49;102410.28;4994887;28;20030;-76
2022/03/06 02:08:36;;;;;;;43.78;24.50;;;;;;;-1.20;80.76;102410.22;4994303;28;20022;-73
2022/03/06 02:11:01;;;;;;;49.40;24.58;;;;;;;-1.36;80.78;102393.16;4995075;28;20046;-75
2022/03/06 02:13:27;;;;;;;48.25;23.65;;;;;;;-1.31;81.21;102409.25;4994680;28;20100;-76
2022/03/06 02:15:54;;;;;;;49.00;24.38;;;;;;;-1.51;81.64;102389.59;4994730;28;20037;-75
2022/03/06 02:18:22;;;;;;;48.38;24.70;;;;;;;-1.52;81.74;102394.66;4994865;28;20037;-79
2022/03/06 02:20:47;;;;;;;46.33;24.20;;;;;;;-1.42;81.87;102413.34;4994667;28;20506;-76
2022/03/06 02:23:12;;;;;;;45.42;23.52;;;;;;;-1.70;82.36;102384.28;4994764;28;20027;-76
2022/03/06 02:25:38;;;;;;;45.60;23.90;;;;;;;-1.58;82.32;102417.34;4994615;28;20028;-78
2022/03/06 02:28:06;;;;;;;49.47;23.50;;;;;;;-1.58;82.60;102417.34;4994711;28;20053;-76
2022/03/06 02:30:34;;;;;;;47.60;24.20;;;;;;;-1.74;83.09;102404.53;4994573;28;20427;-74
2022/03/06 02:33:02;;;;;;;48.08;24.40;;;;;;;-1.73;83.13;102407.91;4994424;28;20027;-75
2022/03/06 02:35:28;;;;;;;48.65;24.80;;;;;;;-1.69;83.47;102427.34;4994345;28;20014;-75
2022/03/06 02:37:53;;;;;;;46.10;23.65;;;;;;;-1.78;83.17;102404.44;4993126;28;20074;-75
2022/03/06 02:40:21;;;;;;;50.30;25.83;;;;;;;-1.74;83.54;102434.06;4994403;28;20498;-78
2022/03/06 02:42:49;;;;;;;45.95;24.17;;;;;;;-1.78;83.70;102432.28;4994489;28;20026;-75
2022/03/06 02:45:20;;;;;;;47.03;24.27;;;;;;;-1.83;83.98;102434.78;4994227;28;20110;-75
2022/03/06 02:47:46;;;;;;;48.15;24.70;;;;;;;-1.81;83.59;102432.25;4994456;28;20464;-75
2022/03/06 02:50:16;;;;;;;46.35;24.10;;;;;;;-1.85;83.97;102430.53;4993973;28;20380;-75
2022/03/06 02:52:42;;;;;;;49.97;24.63;;;;;;;-1.99;84.03;102416.81;4994207;28;20037;-76
2022/03/06 02:55:08;;;;;;;47.50;24.30;;;;;;;-1.90;84.12;102429.59;4994123;28;20472;-75
2022/03/06 02:57:34;;;;;;;48.92;24.02;;;;;;;-1.94;84.26;102427.88;4994238;28;20077;-75
2022/03/06 02:59:59;;;;;;;45.47;25.05;;;;;;;-1.93;84.30;102434.63;4994066;28;20034;-76
2022/03/06 03:02:25;;;;;;;45.90;24.30;;;;;;;-2.06;84.42;102414.22;4992793;28;20037;-76
2022/03/06 03:04:50;;;;;;;43.35;23.80;;;;;;;-1.92;84.20;102433.81;4993807;28;20528;-77
2022/03/06 03:07:16;;;;;;;49.72;24.83;;;;;;;-2.00;84.57;102426.09;4993961;28;20536;-77
2022/03/06 03:09:41;;;;;;;48.10;23.13;;;;;;;-2.17;85.17;102407.25;4993907;28;20037;-76
2022/03/06 03:12:08;;;;;;;45.00;23.42;;;;;;;-2.06;84.95;102439.53;4993737;28;20117;-77
2022/03/06 03:14:33;;;;;;;49.28;25.48;;;;;;;-2.06;85.37;102439.53;4993591;28;20420;-75
2022/03/06 03:17:00;;;;;;;44.22;23.98;;;;;;;-2.06;85.81;102444.59;4993828;28;20043;-76
2022/03/06 03:19:25;;;;;;;47.67;24.35;;;;;;;-2.07;85.68;102440.31;4993624;28;20428;-76
2022/03/06 03:21:51;;;;;;;46.40;22.10;;;;;;;-2.20;85.29;102413.13;4993432;28;20133;-77
2022/03/06 03:24:16;;;;;;;47.90;24.33;;;;;;;-2.14;85.28;102433.50;4992689;28;20054;-76
2022/03/06 03:26:42;;;;;;;46.30;23.52;;;;;;;-2.30;85.87;102401.19;4993718;28;20061;-76
2022/03/06 03:29:07;;;;;;;47.58;23.27;;;;;;;-2.15;85.44;102430.94;4993641;28;20031;-76
2022/03/06 03:31:33;;;;;;;47.80;24.38;;;;;;;-2.17;85.84;102447.75;4993172;28;20022;-76
2022/03/06 03:33:58;;;;;;;45.85;23.85;;;;;;;-2.22;85.81;102440.09;4993645;28;20081;-76
2022/03/06 03:36:23;;;;;;;47.15;24.65;;;;;;;-2.23;86.18;102437.56;4993451;28;20444;-76
2022/03/06 03:38:49;;;;;;;48.35;26.17;;;;;;;-2.28;85.99;102434.09;4993414;28;20496;-77
2022/03/06 03:41:14;;;;;;;45.10;24.65;;;;;;;-2.27;86.47;102439.16;4993406;28;20070;-75
2022/03/06 03:43:40;;;;;;;47.72;22.85;;;;;;;-2.31;85.87;102437.44;4993450;28;20030;-76
2022/03/06 03:46:08;;;;;;;46.85;24.08;;;;;;;-2.31;86.28;102445.88;4993077;28;20026;-78
2022/03/06 03:48:34;;;;;;;43.35;23.42;;;;;;;-2.33;86.42;102451.75;4993307;28;20415;-76
2022/03/06 03:50:59;;;;;;;48.85;24.13;;;;;;;-2.37;86.33;102448.28;4993326;28;20030;-76
2022/03/06 03:53:25;;;;;;;44.47;22.90;;;;;;;-2.62;86.42;102419.22;4993198;28;20041;-78
2022/03/06 03:55:52;;;;;;;43.08;23.92;;;;;;;-2.42;87.08;102457.50;4993446;28;20033;-75
2022/03/06 03:58:18;;;;;;;49.83;25.33;;;;;;;-2.95;86.88;102363.91;5131332;23;20136;-76
2022/03/06 04:00:44;;;;;;;44.75;23.77;;;;;;;-2.44;86.82;102454.09;4992987;28;20034;-76
2022/03/06 04:03:10;;;;;;;41.55;24.35;;;;;;;-2.68;87.01;102421.63;4992954;28;20493;-76
2022/03/06 04:05:35;;;;;;;46.03;22.77;;;;;;;-2.47;86.84;102460.75;4993246;28;20066;-75
2022/03/06 04:08:01;;;;;;;42.60;22.70;;;;;;;-2.78;87.08;102404.63;4993119;28;20026;-77
2022/03/06 04:10:26;;;;;;;46.35;24.92;;;;;;;-2.77;87.16;102416.44;4993172;28;20037;-76
2022/03/06 04:12:52;;;;;;;44.05;22.80;;;;;;;-2.50;86.90;102466.63;4993126;28;20544;-75
2022/03/06 04:15:17;;;;;;;43.22;22.92;;;;;;;-2.55;87.04;102459.81;4992546;28;20034;-75
2022/03/06 04:17:43;;;;;;;47.45;24.20;;;;;;;-2.71;87.09;102438.44;4993127;28;20030;-75
2022/03/06 04:20:08;;;;;;;48.20;25.83;;;;;;;-2.53;87.10;102474.19;4993044;28;20033;-77
2022/03/06 04:22:34;;;;;;;44.70;24.67;;;;;;;-2.70;87.21;102443.53;4993034;28;20022;-77
2022/03/06 04:24:59;;;;;;;45.95;24.77;;;;;;;-2.65;87.16;102444.47;4992905;28;20484;-76
2022/03/06 04:27:25;;;;;;;43.63;23.65;;;;;;;-2.53;86.98;102478.38;4993148;28;20022;-76
2022/03/06 04:29:50;;;;;;;44.30;25.42;;;;;;;-2.95;87.42;102413.56;4992801;28;20150;-76
2022/03/06 04:32:16;;;;;;;40.03;23.80;;;;;;;-2.60;87.34;102485.00;4994104;28;20101;-76
2022/03/06 04:34:41;;;;;;;46.10;24.48;;;;;;;-2.62;87.39;102487.50;4996629;28;20030;-76
2022/03/06 04:37:06;;;;;;;45.40;24.45;;;;;;;-2.61;87.12;102491.75;4996663;28;20491;-77
2022/03/06 04:39:32;;;;;;;44.33;22.95;;;;;;;-2.65;87.18;102492.53;4995257;28;20085;-76
2022/03/06 04:41:57;;;;;;;49.40;25.23;;;;;;;-2.66;87.64;102483.19;4996358;28;20134;-74
2022/03/06 04:44:23;;;;;;;45.92;24.05;;;;;;;-2.88;87.72;102453.31;4996453;28;20022;-77
2022/03/06 04:46:48;;;;;;;45.97;24.05;;;;;;;-2.67;87.74;102496.66;4996185;28;20026;-77
2022/03/06 04:49:14;;;;;;;43.55;24.33;;;;;;;-2.69;87.53;102498.31;4996416;28;20073;-77
2022/03/06 04:51:39;;;;;;;43.10;23.63;;;;;;;-2.88;87.57;102476.06;4996442;28;20022;-77
2022/03/06 04:54:05;;;;;;;43.83;23.55;;;;;;;-2.73;87.60;102509.22;4996275;28;20041;-76
2022/03/06 04:56:31;;;;;;;43.90;23.80;;;;;;;-2.74;87.84;102516.78;4996338;28;20030;-77
2022/03/06 04:58:56;;;;;;;44.83;24.40;;;;;;;-2.72;88.18;102510.06;4996043;28;20042;-76
2022/03/06 05:01:21;;;;;;;42.60;23.58;;;;;;;-2.76;88.05;102516.72;4996098;28;20034;-76
2022/03/06 05:03:47;;;;;;;43.80;24.40;;;;;;;-2.74;88.20;102516.78;4996103;28;20022;-75
2022/03/06 05:06:12;;;;;;;43.25;24.58;;;;;;;-2.73;88.29;102524.38;4996221;28;20060;-77
2022/03/06 05:08:37;;;;;;;40.22;23.42;;;;;;;-3.07;88.15;102463.88;4996061;28;20041;-78
2022/03/06 05:11:03;;;;;;;44.72;24.02;;;;;;;-2.78;87.82;102530.16;4995721;28;20088;-76
2022/03/06 05:13:28;;;;;;;45.88;25.08;;;;;;;-2.81;88.23;102537.69;4996063;28;20038;-77
2022/03/06 05:15:53;;;;;;;49.05;24.95;;;;;;;-2.83;88.44;102529.25;4995760;28;20032;-78
2022/03/06 05:18:19;;;;;;;41.75;24.00;;;;;;;-2.86;88.44;102529.16;4995918;28;20058;-76
2022/03/06 05:20:44;;;;;;;41.80;24.30;;;;;;;-2.87;88.29;102530.84;4995775;28;20365;-77
2022/03/06 05:23:10;;;;;;;43.50;23.70;;;;;;;-2.86;88.41;102535.06;4995778;28;20100;-78
2022/03/06 05:25:35;;;;;;;45.22;24.55;;;;;;;-2.84;88.42;102535.13;4995650;28;20107;-75
2022/03/06 05:28:01;;;;;;;42.60;23.50;;;;;;;-3.11;88.22;102484.88;4995846;28;20457;-76
2022/03/06 05:30:26;;;;;;;46.42;25.20;;;;;;;-2.79;88.19;102531.84;4995732;28;20034;-76
2022/03/06 05:32:52;;;;;;;42.70;23.85;;;;;;;-2.92;87.99;102523.19;4995764;28;20109;-76
2022/03/06 05:35:17;;;;;;;44.28;25.38;;;;;;;-2.83;88.47;102539.34;4995667;28;20031;-78
2022/03/06 05:37:43;;;;;;;42.67;23.10;;;;;;;-2.96;88.39;102528.13;4995650;28;20022;-76
2022/03/06 05:40:08;;;;;;;43.00;25.02;;;;;;;-3.01;88.00;102517.09;4995544;28;20033;-77
2022/03/06 05:42:34;;;;;;;46.45;25.48;;;;;;;-3.15;88.51;102505.84;4995420;28;20439;-75
2022/03/06 05:44:59;;;;;;;42.67;24.00;;;;;;;-2.90;88.23;102556.91;4994270;28;20038;-79
2022/03/06 05:47:25;;;;;;;47.28;25.23;;;;;;;-2.91;88.33;102551.84;4995396;28;20399;-76
2022/03/06 05:49:50;;;;;;;44.20;24.27;;;;;;;-3.08;87.95;102530.41;4995354;28;20034;-76
2022/03/06 05:52:16;;;;;;;42.20;24.73;;;;;;;-3.03;88.12;102547.38;4995309;28;20037;-76
2022/03/06 05:54:42;;;;;;;40.00;23.95;;;;;;;-3.14;88.56;102528.63;4993984;28;20042;-78
2022/03/06 05:57:07;;;;;;;41.30;24.13;;;;;;;-2.98;88.16;102545.78;4994889;28;20468;-76
2022/03/06 05:59:32;;;;;;;48.33;22.73;;;;;;;-3.17;88.35;102519.28;4995092;28;20030;-75
2022/03/06 06:01:58;;;;;;;46.15;25.77;;;;;;;-2.97;88.02;102560.13;4994884;28;20082;-75
2022/03/06 06:04:23;;;;;;;45.70;24.80;;;;;;;-3.10;88.26;102542.16;4995113;28;20038;-75
2022/03/06 06:06:49;;;;;;;40.90;23.38;;;;;;;-2.99;88.42;102568.50;4994997;28;20034;-75
2022/03/06 06:09:14;;;;;;;44.55;24.80;;;;;;;-3.11;88.35;102553.09;4994954;28;20054;-75
2022/03/06 06:11:39;;;;;;;44.58;24.08;;;;;;;-3.01;88.59;102572.69;4994979;28;20097;-76
2022/03/06 06:14:05;;;;;;;44.28;24.63;;;;;;;-3.28;88.70;102527.47;4994812;28;20073;-76
2022/03/06 06:16:31;;;;;;;42.00;23.88;;;;;;;-3.05;88.50;102569.22;4993748;28;20439;-78
2022/03/06 06:18:56;;;;;;;43.03;24.92;;;;;;;-3.08;88.30;102576.75;4994672;28;20034;-76
2022/03/06 06:21:22;;;;;;;43.28;24.05;;;;;;;-3.21;88.67;102557.09;4993232;28;20092;-76
2022/03/06 06:23:47;;;;;;;44.20;25.05;;;;;;;-3.06;88.71;102579.31;4994566;28;20121;-75
2022/03/06 06:26:13;;;;;;;43.88;23.80;;;;;;;-3.05;88.71;102588.59;4994626;28;20105;-75
2022/03/06 06:28:38;;;;;;;44.08;23.77;;;;;;;-3.05;88.99;102589.44;4994639;28;20062;-74
2022/03/06 06:31:05;;;;;;;41.65;23.65;;;;;;;-3.11;88.74;102574.16;4994539;28;20049;-76
2022/03/06 06:33:31;;;;;;;42.67;24.25;;;;;;;-3.02;88.78;102588.69;4994514;28;20026;-76
2022/03/06 06:35:56;;;;;;;47.08;25.23;;;;;;;-2.97;88.48;102587.94;4993891;28;20057;-75
2022/03/06 06:38:22;;;;;;;46.55;24.08;;;;;;;-3.00;88.09;102584.50;4993020;28;20026;-77
2022/03/06 06:40:49;;;;;;;42.33;23.80;;;;;;;-3.04;88.27;102572.63;4994381;28;20026;-75
2022/03/06 06:43:15;;;;;;;42.55;24.67;;;;;;;-3.02;87.54;102579.41;4994360;28;20404;-75
2022/03/06 06:45:40;;;;;;;41.15;24.33;;;;;;;-2.90;87.65;102594.84;4994182;28;20400;-76
2022/03/06 06:48:06;;;;;;;44.35;24.70;;;;;;;-3.29;87.58;102521.56;4994258;28;20038;-76
2022/03/06 06:50:32;;;;;;;43.47;23.05;;;;;;;-3.18;87.79;102542.00;4994630;28;20104;-76
2022/03/06 06:52:57;;;;;;;44.45;24.73;;;;;;;-3.27;87.70;102524.13;4994177;28;20042;-76
2022/03/06 06:55:22;;;;;;;46.28;23.98;;;;;;;-2.76;87.31;102601.84;4993685;28;20084;-76
2022/03/06 06:57:48;;;;;;;45.95;24.77;;;;;;;-2.74;87.22;102603.59;4993779;28;20125;-77
2022/03/06 07:00:14;;;;;;;42.30;24.27;;;;;;;-2.62;86.91;102621.53;5047674;23;20054;-77
2022/03/06 07:02:39;;;;;;;41.70;22.42;;;;;;;-2.84;86.99;102583.16;5004928;28;20100;-75
2022/03/06 07:05:05;;;;;;;44.83;25.20;;;;;;;-2.52;87.06;102630.16;5014269;28;20045;-75
2022/03/06 07:07:30;;;;;;;42.47;24.58;;;;;;;-2.51;86.60;102623.44;5014031;28;20479;-76
2022/03/06 07:09:55;;;;;;;41.88;24.30;;;;;;;-2.56;86.47;102605.63;5012181;28;20034;-75
2022/03/06 07:12:20;;;;;;;41.33;22.15;;;;;;;-2.59;86.13;102592.91;5013501;28;20033;-75
2022/03/06 07:14:46;;;;;;;39.95;22.95;;;;;;;-2.37;86.33;102625.38;5013546;28;20092;-75
2022/03/06 07:17:11;;;;;;;42.35;23.88;;;;;;;-2.33;86.14;102618.72;5013125;28;20029;-76
2022/03/06 07:19:36;;;;;;;41.17;22.85;;;;;;;-2.25;86.06;102627.31;5013178;28;20378;-75
2022/03/06 07:22:02;;;;;;;42.67;23.58;;;;;;;-2.16;85.50;102632.56;5013313;28;20028;-76
2022/03/06 07:24:27;;;;;;;42.97;23.60;;;;;;;-2.12;85.22;102639.34;5013395;28;20033;-78
2022/03/06 07:26:53;;;;;;;39.40;22.77;;;;;;;-2.06;85.46;102642.03;5013189;28;20032;-77
2022/03/06 07:29:18;;;;;;;40.05;23.85;;;;;;;-2.00;85.33;102645.47;5013073;28;20030;-75
2022/03/06 07:31:43;;;;;;;37.83;23.00;;;;;;;-2.08;85.00;102620.00;5011690;28;20038;-76
2022/03/06 07:34:09;;;;;;;40.33;23.75;;;;;;;-1.89;84.64;102649.03;5011595;28;20041;-76
2022/03/06 07:36:34;;;;;;;39.97;22.58;;;;;;;-1.83;84.36;102651.69;5013232;28;20017;-76
2022/03/06 07:38:59;;;;;;;38.03;24.00;;;;;;;-1.76;83.82;102659.44;5013174;28;20029;-75
2022/03/06 07:41:25;;;;;;;44.80;24.13;;;;;;;-1.75;83.79;102653.53;5013042;28;20064;-76
2022/03/06 07:43:50;;;;;;;38.88;22.15;;;;;;;-1.66;83.62;102660.44;5013053;28;20033;-76
2022/03/06 07:46:16;;;;;;;40.10;22.23;;;;;;;-1.77;84.37;102634.94;5012908;28;20097;-75
2022/03/06 07:48:41;;;;;;;36.80;21.05;;;;;;;-1.76;83.09;102629.03;5011308;28;20065;-76
2022/03/06 07:51:06;;;;;;;35.47;21.20;;;;;;;-1.66;83.25;102640.19;5012849;28;20036;-77
2022/03/06 07:53:32;;;;;;;40.13;23.13;;;;;;;-1.40;82.60;102677.72;5012794;28;20026;-77
2022/03/06 07:55:57;;;;;;;36.10;21.83;;;;;;;-1.54;83.17;102642.03;5012823;28;20397;-77
2022/03/06 07:58:23;;;;;;;37.95;22.23;;;;;;;-1.28;82.92;102682.97;5012934;28;20048;-76
2022/03/06 08:00:48;;;;;;;36.10;21.30;;;;;;;-1.45;82.24;102644.72;5012569;28;20063;-74
2022/03/06 08:03:15;;;;;;;38.40;22.17;;;;;;;-1.17;82.33;102678.97;5012487;28;20041;-76
2022/03/06 08:05:40;;;;;;;35.47;22.23;;;;;;;-1.10;81.71;102685.81;5012839;28;20022;-75
2022/03/06 08:08:06;;;;;;;37.45;21.38;;;;;;;-1.04;81.64;102683.38;5015490;28;20037;-75
2022/03/06 08:10:31;;;;;;;34.40;21.27;;;;;;;-1.16;81.46;102655.31;5016875;28;20079;-77
2022/03/06 08:12:56;;;;;;;36.83;21.85;;;;;;;-0.92;81.48;102691.16;5016289;28;20124;-78
2022/03/06 08:15:22;;;;;;;34.83;20.95;;;;;;;-0.83;81.21;102689.56;5016414;28;20038;-79
2022/03/06 08:17:47;;;;;;;35.63;21.17;;;;;;;-0.90;80.89;102679.34;5016635;28;20057;-78
2022/03/06 08:20:12;;;;;;;35.90;23.35;;;;;;;-0.73;80.89;102694.78;5016374;28;20029;-76
2022/03/06 08:22:38;;;;;;;35.83;21.08;;;;;;;-0.78;80.48;102673.59;5016769;28;20439;-77
2022/03/06 08:25:04;;;;;;;35.80;20.75;;;;;;;-0.74;80.81;102682.94;5016735;28;20037;-77
2022/03/06 08:27:30;;;;;;;35.30;20.98;;;;;;;-0.78;80.30;102660.06;5016368;28;20060;-83
2022/03/06 08:29:55;;;;;;;35.40;20.92;;;;;;;-0.49;79.68;102696.81;5016370;28;20105;-79
2022/03/06 08:32:21;;;;;;;34.05;21.50;;;;;;;-0.52;79.34;102686.59;5016263;28;20029;-79
2022/03/06 08:34:51;;;;;;;33.30;21.27;;;;;;;-0.38;78.97;102713.03;5015974;28;20056;-78
2022/03/06 08:37:16;;;;;;;32.65;21.15;;;;;;;-0.34;79.53;102709.69;5016076;28;20026;-83
2022/03/06 08:39:41;;;;;;;34.22;20.70;;;;;;;-0.31;78.56;102713.94;5016189;28;20403;-82
2022/03/06 08:42:07;;;;;;;36.22;21.98;;;;;;;-0.26;79.72;102721.63;5016318;28;20165;-79
2022/03/06 08:44:32;;;;;;;37.58;21.25;;;;;;;-0.50;80.01;102659.56;5016465;28;20033;-79
2022/03/06 08:46:57;;;;;;;33.95;21.25;;;;;;;-0.09;78.65;102720.16;4998743;28;20157;-78
2022/03/06 08:49:23;;;;;;;36.33;21.73;;;;;;;-0.05;78.99;102725.25;5015826;28;20069;-76
2022/03/06 08:51:48;;;;;;;32.65;20.63;;;;;;;-0.05;78.42;102717.66;5016003;28;20030;-77
2022/03/06 08:54:15;;;;;;;34.88;21.45;;;;;;;0.08;79.39;102723.69;5014889;28;20033;-75
2022/03/06 08:56:40;;;;;;;33.53;21.13;;;;;;;-0.03;79.35;102684.63;5016004;28;20034;-79
2022/03/06 08:59:06;;;;;;;38.00;21.88;;;;;;;0.23;79.10;102718.78;5016288;28;20168;-80
2022/03/06 09:01:31;;;;;;;33.33;21.02;;;;;;;-0.02;79.36;102669.41;5015655;28;20077;-79
2022/03/06 09:03:56;;;;;;;34.47;20.73;;;;;;;0.26;78.50;102712.88;5015573;28;20527;-80
2022/03/06 09:06:22;;;;;;;34.78;21.70;;;;;;;0.30;78.74;102719.72;5014003;28;20046;-77
2022/03/06 09:08:47;;;;;;;37.92;23.20;;;;;;;0.38;78.64;102728.25;5015481;28;20036;-75
2022/03/06 09:11:12;;;;;;;32.80;21.52;;;;;;;0.44;78.29;102730.00;5015752;28;20080;-81
2022/03/06 09:13:38;;;;;;;34.72;21.50;;;;;;;0.39;77.97;102719.78;5015626;28;20117;-76
2022/03/06 09:16:04;;;;;;;32.75;20.70;;;;;;;0.49;78.33;102733.41;5015754;28;20104;-76
2022/03/06 09:18:30;;;;;;;33.85;22.20;;;;;;;0.51;78.33;102724.16;5015187;28;20029;-78
2022/03/06 09:20:56;;;;;;;35.35;20.80;;;;;;;0.56;78.05;102727.56;5014017;28;20113;-80
2022/03/06 09:23:22;;;;;;;31.42;21.10;;;;;;;0.24;77.05;102667.13;5015403;28;20050;-78
2022/03/06 09:25:47;;;;;;;31.63;21.60;;;;;;;-0.14;76.96;102594.81;5015484;28;20052;-77
2022/03/06 09:28:13;;;;;;;31.98;21.73;;;;;;;0.69;76.72;102724.31;5015471;28;20049;-76
2022/03/06 09:30:38;;;;;;;32.55;21.60;;;;;;;0.74;76.73;102730.28;5015138;28;20033;-78
2022/03/06 09:33:04;;;;;;;32.45;20.95;;;;;;;0.78;76.25;102724.34;5015472;28;20030;-76
2022/03/06 09:35:30;;;;;;;33.55;21.40;;;;;;;0.86;76.94;102730.34;5014976;28;20472;-75
2022/03/06 09:37:56;;;;;;;33.03;20.65;;;;;;;0.80;75.55;102698.97;5015009;28;20040;-78
2022/03/06 09:40:21;;;;;;;33.47;21.60;;;;;;;1.04;76.34;102723.72;5015064;28;20395;-79
2022/03/06 09:42:47;;;;;;;30.55;20.88;;;;;;;0.91;74.98;102699.88;5015140;28;20037;-82
2022/03/06 09:45:14;;;;;;;32.60;21.45;;;;;;;1.18;76.97;102729.75;5014720;28;20431;-78
2022/03/06 09:47:42;;;;;;;28.95;20.38;;;;;;;1.24;74.72;102723.84;5015138;28;20033;-78
2022/03/06 09:50:09;;;;;;;32.13;20.50;;;;;;;1.30;75.18;102721.34;5014892;28;20030;-81
2022/03/06 09:52:35;;;;;;;32.20;20.90;;;;;;;1.27;75.51;102711.97;5014739;28;20026;-76
2022/03/06 09:55:01;;;;;;;29.15;19.23;;;;;;;1.35;73.85;102712.03;5014958;28;20030;-76
2022/03/06 09:57:26;;;;;;;31.73;19.60;;;;;;;1.48;73.22;102724.00;5015001;28;20041;-76
2022/03/06 09:59:52;;;;;;;29.77;19.10;;;;;;;1.49;73.59;102715.50;5013406;28;20121;-74
2022/03/06 10:02:17;;;;;;;29.98;19.48;;;;;;;1.34;74.40;102679.78;5013468;28;20380;-72
2022/03/06 10:04:43;;;;;;;27.38;18.85;;;;;;;1.64;74.42;102723.19;5014542;28;20398;-75
2022/03/06 10:07:12;;;;;;;26.02;19.15;;;;;;;1.49;73.06;102671.38;5014498;28;20068;-74
2022/03/06 10:09:52;;;;;;;27.58;19.08;;;;;;;1.85;73.40;102717.34;5014657;28;20454;-74
2022/03/06 10:12:19;;;;;;;29.10;19.65;;;;;;;1.93;73.53;102717.38;5014609;28;20569;-76
2022/03/06 10:14:44;;;;;;;28.50;19.38;;;;;;;1.67;72.99;102671.41;5014610;28;20033;-75
2022/03/06 10:17:15;;;;;;;27.33;18.60;;;;;;;1.91;72.34;102685.94;5014553;28;20061;-77
2022/03/06 10:19:46;;;;;;;27.98;18.95;;;;;;;2.19;72.24;102722.53;5014037;28;20470;-76
2022/03/06 10:22:12;;;;;;;25.50;17.75;;;;;;;2.23;70.16;102719.13;5014466;28;20076;-75
2022/03/06 10:24:48;;;;;;;22.67;17.13;;;;;;;2.26;71.20;102719.13;5013440;28;20478;-72
2022/03/06 10:27:13;;;;;;;25.02;16.52;;;;;;;2.34;70.15;102720.00;5015261;28;20446;-72
2022/03/06 10:29:39;;;;;;;24.33;16.52;;;;;;;2.42;69.31;102717.47;5013517;28;20105;-74
2022/03/06 10:32:07;;;;;;;24.00;16.60;;;;;;;2.35;68.38;102716.59;5014498;28;20474;-75
2022/03/06 10:34:39;;;;;;;27.77;17.42;;;;;;;2.50;69.35;102726.84;5014045;28;20060;-76
2022/03/06 10:37:06;;;;;;;21.70;15.63;;;;;;;2.57;68.34;102720.91;5014064;28;20030;-76
2022/03/06 10:39:45;;;;;;;22.95;15.98;;;;;;;2.63;69.01;102722.59;5014216;28;20029;-75
2022/03/06 10:42:11;;;;;;;25.67;17.42;;;;;;;2.71;67.96;102720.88;5014123;28;20065;-75
2022/03/06 10:44:45;;;;;;;24.60;16.75;;;;;;;2.71;67.67;102731.09;5014031;28;20422;-75
2022/03/06 10:47:10;;;;;;;25.45;17.02;;;;;;;2.78;66.58;102721.75;5013860;28;20037;-74
2022/03/06 10:49:36;;;;;;;23.60;16.75;;;;;;;2.81;67.55;102727.69;5013933;28;20141;-75
2022/03/06 10:52:23;;;;;;;23.17;16.35;;;;;;;2.81;66.67;102708.97;5013768;28;20079;-72
2022/03/06 10:54:57;;;;;;;21.83;15.77;;;;;;;2.79;66.38;102692.84;5013711;28;20475;-76
2022/03/06 10:57:24;;;;;;;24.55;16.98;;;;;;;3.02;66.91;102720.88;5013803;28;20030;-76
2022/03/06 10:59:50;;;;;;;22.63;15.82;;;;;;;2.66;65.23;102647.78;5013348;28;20022;-75
2022/03/06 11:02:17;;;;;;;26.05;17.17;;;;;;;3.08;64.62;102714.06;5013372;28;20100;-77
2022/03/06 11:04:46;;;;;;;21.35;15.40;;;;;;;2.92;64.14;102681.75;5013641;28;20045;-76
2022/03/06 11:07:12;;;;;;;25.40;16.00;;;;;;;3.21;63.69;102711.47;5013425;28;20033;-75